createdAt,value
2019-01-08T00:02:02.785Z,97590.72
2019-01-08T00:04:17.161Z,97603.03
2019-01-08T00:06:30.862Z,97611.09
2019-01-08T00:08:47.256Z,97607.33
2019-01-08T00:10:59.360Z,97617.02
2019-01-08T00:13:26.766Z,97615.48
2019-01-08T00:15:30.300Z,97612.77
2019-01-08T00:17:44.145Z,97634.47
2019-01-08T00:20:05.368Z,97551.77
2019-01-08T00:23:13.070Z,97639.52
2019-01-08T00:25:20.650Z,97645.69
2019-01-08T00:28:13.298Z,97665.09
2019-01-08T00:30:29.425Z,97672.04
2019-01-08T00:33:19.911Z,97690.23
2019-01-08T00:35:28.666Z,97688.88
2019-01-08T00:37:40.797Z,97701.86
2019-01-08T00:39:50.108Z,97710.03
2019-01-08T00:42:01.416Z,97737.75
2019-01-08T00:46:39.991Z,97732.84
2019-01-08T00:48:51.519Z,97729.59
2019-01-08T00:51:03.080Z,97736.38
2019-01-08T00:53:16.884Z,97735.77
2019-01-08T00:55:26.697Z,97740.46
2019-01-08T01:00:16.551Z,97756.17
2019-01-08T01:02:34.347Z,97754.53
2019-01-08T01:04:46.353Z,97755.52
2019-01-08T01:07:01.961Z,97755.81
2019-01-08T01:09:20.490Z,97753.59
2019-01-08T01:11:32.915Z,97755.81
2019-01-08T01:13:45.836Z,97756.25
2019-01-08T01:15:54.340Z,97780.39
2019-01-08T01:18:06.992Z,97779.62
2019-01-08T01:20:25.123Z,97794.33
2019-01-08T01:22:44.271Z,97810.18
2019-01-08T01:25:16.707Z,97811.67
2019-01-08T01:27:42.539Z,97827.95
2019-01-08T01:29:49.628Z,97852.13
2019-01-08T01:31:56.990Z,97859.13
2019-01-08T01:34:04.530Z,97865.58
2019-01-08T01:36:19.705Z,97861.79
2019-01-08T01:38:28.354Z,97873.17
2019-01-08T01:40:44.800Z,97839.83
2019-01-08T01:42:56.254Z,97881.50
2019-01-08T01:45:14.450Z,97895.25
2019-01-08T01:47:29.931Z,97887.63
2019-01-08T01:49:49.503Z,97886.88
2019-01-08T01:51:59.507Z,97887.59
2019-01-08T01:54:11.439Z,97893.78
2019-01-08T01:56:25.448Z,97899.38
2019-01-08T01:58:38.331Z,97909.11
2019-01-08T02:03:37.714Z,97907.46
2019-01-08T02:05:39.100Z,97910.05
2019-01-08T02:08:01.886Z,97916.91
2019-01-08T02:10:12.134Z,97910.92
2019-01-08T02:12:22.798Z,97909.33
2019-01-08T02:14:39.023Z,97905.91
2019-01-08T02:16:49.217Z,97904.69
2019-01-08T02:18:58.935Z,97902.92
2019-01-08T02:21:10.833Z,97900.22
2019-01-08T02:25:29.506Z,97887.53
2019-01-08T02:27:39.176Z,97893.27
2019-01-08T02:29:51.011Z,97875.97
2019-01-08T02:32:03.786Z,97862.35
2019-01-08T02:34:13.936Z,97864.89
2019-01-08T02:36:41.229Z,97858.86
2019-01-08T02:38:49.558Z,97859.39
2019-01-08T02:40:59.690Z,97870.61
2019-01-08T02:43:10.078Z,97875.20
2019-01-08T02:45:18.293Z,97877.46
2019-01-08T02:47:27.838Z,97869.30
2019-01-08T02:49:40.604Z,97858.89
2019-01-08T02:51:54.561Z,97849.50
2019-01-08T02:54:03.424Z,97844.70
2019-01-08T02:56:19.840Z,97839.05
2019-01-08T02:58:29.494Z,97845.81
2019-01-08T03:00:39.338Z,97837.55
2019-01-08T03:02:59.359Z,97836.44
2019-01-08T03:05:11.054Z,97844.17
2019-01-08T03:07:20.282Z,97844.28
2019-01-08T03:09:46.843Z,97850.63
2019-01-08T03:12:04.482Z,97863.38
2019-01-08T03:14:17.762Z,97868.83
2019-01-08T03:16:35.830Z,97866.29
2019-01-08T03:18:55.159Z,97881.89
2019-01-08T03:21:04.535Z,97880.25
2019-01-08T03:23:20.980Z,97866.33
2019-01-08T03:25:30.261Z,97869.17
2019-01-08T03:27:39.534Z,97876.41
2019-01-08T03:29:51.363Z,97886.20
2019-01-08T03:32:01.912Z,97894.64
2019-01-08T03:34:14.964Z,97897.03
2019-01-08T03:36:41.611Z,97895.60
2019-01-08T03:38:53.133Z,97898.37
2019-01-08T03:41:05.774Z,97888.38
2019-01-08T03:43:14.400Z,97877.05
2019-01-08T03:45:27.634Z,97880.57
2019-01-08T03:47:37.839Z,97874.13
2019-01-08T03:55:00.791Z,97869.78
2019-01-08T03:57:20.048Z,97870.56
2019-01-08T03:59:41.734Z,97883.71
2019-01-08T04:01:44.250Z,97894.40
2019-01-08T04:03:56.228Z,97895.85
2019-01-08T04:06:31.764Z,97906.72
2019-01-08T04:08:45.802Z,97911.84
2019-01-08T04:10:54.027Z,97916.91
2019-01-08T04:13:53.845Z,97939.05
2019-01-08T04:16:02.513Z,97933.73
2019-01-08T04:18:12.248Z,97935.82
2019-01-08T04:20:27.962Z,97954.06
2019-01-08T04:22:40.991Z,97965.66
2019-01-08T04:24:52.276Z,97977.50
2019-01-08T04:27:17.280Z,97970.12
2019-01-08T04:29:27.402Z,97992.97
2019-01-08T04:31:37.616Z,98006.36
2019-01-08T04:33:53.138Z,97979.03
2019-01-08T04:36:02.635Z,97987.19
2019-01-08T04:38:12.135Z,98009.13
2019-01-08T04:40:21.398Z,98012.99
2019-01-08T04:42:31.068Z,97997.31
2019-01-08T04:44:41.523Z,97993.39
2019-01-08T04:46:49.931Z,97991.13
2019-01-08T04:49:00.496Z,97995.30
2019-01-08T04:51:12.982Z,97987.86
2019-01-08T04:53:21.119Z,97975.69
2019-01-08T04:55:28.229Z,97974.08
2019-01-08T04:57:40.637Z,97976.93
2019-01-08T04:59:58.756Z,97978.92
2019-01-08T05:02:01.371Z,97976.75
2019-01-08T05:04:11.847Z,97980.14
2019-01-08T05:06:23.085Z,97959.48
2019-01-08T05:08:44.608Z,97967.16
2019-01-08T05:11:53.998Z,97976.80
2019-01-08T05:13:36.366Z,97988.97
2019-01-08T05:15:43.537Z,98002.48
2019-01-08T05:18:16.617Z,97992.78
2019-01-08T05:20:30.783Z,98002.24
2019-01-08T05:22:57.803Z,98016.28
2019-01-08T05:25:19.904Z,97989.50
2019-01-08T05:27:35.731Z,97970.00
2019-01-08T05:29:47.723Z,97963.24
2019-01-08T05:32:01.811Z,97961.57
2019-01-08T05:34:25.682Z,97950.91
2019-01-08T05:36:43.526Z,97949.14
2019-01-08T05:39:00.622Z,97952.80
2019-01-08T05:41:22.338Z,97972.77
2019-01-08T05:43:38.376Z,97967.90
2019-01-08T05:45:45.626Z,97967.66
2019-01-08T05:48:18.943Z,97955.89
2019-01-08T05:50:28.560Z,97950.68
2019-01-08T05:52:44.805Z,97957.14
2019-01-08T05:55:05.149Z,97934.70
2019-01-08T05:58:46.522Z,97921.55
2019-01-08T05:59:55.438Z,97925.30
2019-01-08T06:03:09.543Z,97918.75
2019-01-08T06:04:48.971Z,97912.32
2019-01-08T06:06:57.730Z,97897.86
2019-01-08T06:09:25.762Z,97899.55
2019-01-08T06:11:44.090Z,97892.30
2019-01-08T06:14:13.398Z,97902.10
2019-01-08T06:16:31.502Z,97916.91
2019-01-08T06:18:49.393Z,97932.82
2019-01-08T06:21:11.890Z,97924.53
2019-01-08T06:23:24.582Z,97927.23
2019-01-08T06:25:32.046Z,97940.79
2019-01-08T06:27:54.874Z,97942.19
2019-01-08T06:30:06.923Z,97925.41
2019-01-08T06:32:20.390Z,97938.14
2019-01-08T06:34:38.295Z,97929.88
2019-01-08T06:36:51.862Z,97922.59
2019-01-08T06:39:09.576Z,97921.63
2019-01-08T06:41:25.703Z,97928.68
2019-01-08T06:43:39.693Z,97924.62
2019-01-08T06:45:45.514Z,97926.39
2019-01-08T06:48:36.847Z,97929.97
2019-01-08T06:50:45.254Z,97930.50
2019-01-08T06:52:58.829Z,97926.69
2019-01-08T06:55:20.006Z,97931.12
2019-01-08T06:57:41.974Z,97945.48
2019-01-08T07:00:32.902Z,97960.92
2019-01-08T07:02:41.010Z,97948.86
2019-01-08T07:05:36.969Z,97955.99
2019-01-08T07:06:58.590Z,97960.22
2019-01-08T07:09:07.444Z,97960.27
2019-01-08T07:11:27.544Z,97958.92
2019-01-08T07:13:45.838Z,97949.39
2019-01-08T07:15:53.233Z,97938.39
2019-01-08T07:18:41.959Z,97936.21
2019-01-08T07:20:55.708Z,97931.88
2019-01-08T07:23:51.926Z,97932.61
2019-01-08T07:26:07.848Z,97921.81
2019-01-08T07:28:35.876Z,97935.30
2019-01-08T07:31:14.211Z,97922.28
2019-01-08T07:33:37.514Z,97946.57
2019-01-08T07:35:45.263Z,97953.91
2019-01-08T07:38:01.258Z,97949.56
2019-01-08T07:42:50.898Z,97971.45
2019-01-08T07:45:13.616Z,97963.34
2019-01-08T07:47:31.693Z,97975.44
2019-01-08T07:49:48.199Z,97974.55
2019-01-08T07:51:55.765Z,97996.16
2019-01-08T07:55:43.349Z,98000.09
2019-01-08T07:57:03.517Z,97994.28
2019-01-08T07:59:19.512Z,97979.13
2019-01-08T08:01:33.420Z,97966.69
2019-01-08T08:03:53.007Z,97970.64
2019-01-08T08:06:10.904Z,97966.48
2019-01-08T08:08:25.620Z,97979.15
2019-01-08T08:11:30.251Z,97986.14
2019-01-08T08:16:31.560Z,97989.55
2019-01-08T08:18:44.691Z,97985.51
2019-01-08T08:20:56.267Z,97977.88
2019-01-08T08:23:33.213Z,97965.37
2019-01-08T08:25:37.957Z,97960.70
2019-01-08T08:27:54.091Z,97978.57
2019-01-08T08:30:15.794Z,97983.20
2019-01-08T08:32:58.680Z,97973.31
2019-01-08T08:35:20.369Z,97973.19
2019-01-08T08:37:45.697Z,97976.60
2019-01-08T08:40:02.626Z,97974.08
2019-01-08T08:42:11.026Z,97980.13
2019-01-08T08:44:29.815Z,97979.00
2019-01-08T08:46:37.274Z,97980.29
2019-01-08T08:48:55.991Z,97974.01
2019-01-08T08:51:07.246Z,97974.44
2019-01-08T08:53:19.050Z,97973.63
2019-01-08T08:55:26.549Z,97969.74
2019-01-08T08:57:34.252Z,97971.62
2019-01-08T08:59:57.047Z,97971.68
2019-01-08T09:02:37.968Z,97970.27
2019-01-08T09:05:22.208Z,97965.92
2019-01-08T09:07:29.716Z,97973.20
2019-01-08T09:09:41.893Z,97962.48
2019-01-08T09:11:57.879Z,97959.91
2019-01-08T09:14:31.071Z,97956.48
2019-01-08T09:17:01.385Z,97953.23
2019-01-08T09:24:26.459Z,97947.05
2019-01-08T09:26:40.094Z,97947.57
2019-01-08T09:31:15.074Z,97949.65
2019-01-08T09:35:51.774Z,97950.09
2019-01-08T09:37:59.629Z,97947.36
2019-01-08T09:42:59.679Z,97945.95
2019-01-08T09:45:14.303Z,97945.56
2019-01-08T09:47:29.497Z,97960.41
2019-01-08T09:49:55.544Z,97950.08
2019-01-08T09:52:07.912Z,97948.13
2019-01-08T09:54:44.832Z,97946.39
2019-01-08T09:59:35.506Z,97933.73
2019-01-08T10:01:43.411Z,97928.22
2019-01-08T10:03:53.509Z,97938.94
2019-01-08T10:11:29.049Z,97914.66
2019-01-08T10:13:43.345Z,97912.94
2019-01-08T10:15:51.336Z,97912.95
2019-01-08T10:18:12.590Z,97902.85
2019-01-08T10:20:23.874Z,97897.38
2019-01-08T10:22:59.182Z,97895.31
2019-01-08T10:25:16.347Z,97875.64
2019-01-08T10:27:45.528Z,97872.82
2019-01-08T10:30:00.029Z,97860.09
2019-01-08T10:32:15.895Z,97859.63
2019-01-08T10:34:27.736Z,97843.90
2019-01-08T10:36:40.746Z,97845.59
2019-01-08T10:38:52.565Z,97857.80
2019-01-08T10:41:04.228Z,97845.97
2019-01-08T10:43:18.647Z,97837.39
2019-01-08T10:45:31.196Z,97835.42
2019-01-08T10:50:52.782Z,97832.92
2019-01-08T10:53:08.624Z,97835.04
2019-01-08T10:55:20.993Z,97833.55
2019-01-08T10:57:34.139Z,97816.13
2019-01-08T10:59:52.349Z,97824.91
2019-01-08T11:02:11.741Z,97813.77
2019-01-08T11:04:34.334Z,97817.87
2019-01-08T11:06:50.265Z,97820.13
2019-01-08T11:09:07.394Z,97823.30
2019-01-08T11:11:36.589Z,97831.66
2019-01-08T11:13:53.622Z,97845.88
2019-01-08T11:16:02.286Z,97843.91
2019-01-08T11:18:19.231Z,97838.19
2019-01-08T11:21:07.010Z,97821.42
2019-01-08T11:23:31.378Z,97813.45
2019-01-08T11:25:39.185Z,97809.91
2019-01-08T11:27:58.091Z,97823.36
2019-01-08T11:30:29.385Z,97834.00
2019-01-08T11:32:44.836Z,97827.08
2019-01-08T11:35:20.192Z,97847.20
2019-01-08T11:40:26.676Z,97836.73
2019-01-08T11:42:34.365Z,97844.29
2019-01-08T11:44:54.929Z,97844.30
2019-01-08T11:47:21.963Z,97830.88
2019-01-08T11:49:39.336Z,97827.40
2019-01-08T11:51:52.128Z,97818.31
2019-01-08T11:54:09.218Z,97821.17
2019-01-08T11:56:17.932Z,97831.30
2019-01-08T11:58:59.837Z,97836.05
2019-01-08T12:00:55.869Z,97819.55
2019-01-08T12:03:31.492Z,97811.16
2019-01-08T12:05:38.808Z,97806.20
2019-01-08T12:07:58.307Z,97810.69
2019-01-08T12:10:21.346Z,97806.50
2019-01-08T12:12:43.101Z,97796.02
2019-01-08T12:14:58.419Z,97787.97
2019-01-08T12:17:16.486Z,97773.41
2019-01-08T12:19:39.911Z,97767.72
2019-01-08T12:21:47.349Z,97776.97
2019-01-08T12:24:26.508Z,97776.39
2019-01-08T12:26:34.474Z,97758.47
2019-01-08T12:29:01.537Z,97751.91
2019-01-08T12:31:07.725Z,97752.11
2019-01-08T12:33:35.636Z,97764.73
2019-01-08T12:35:42.707Z,97776.97
2019-01-08T12:37:50.520Z,97768.20
2019-01-08T12:42:42.170Z,97762.75
2019-01-08T12:45:05.826Z,97769.30
2019-01-08T12:47:20.782Z,97758.67
2019-01-08T12:49:43.619Z,97757.80
2019-01-08T12:52:30.748Z,97745.58
2019-01-08T12:54:49.141Z,97734.17
2019-01-08T12:57:01.912Z,97727.06
2019-01-08T12:59:24.504Z,97717.77
2019-01-08T13:01:33.165Z,97712.81
2019-01-08T13:03:54.202Z,97702.38
2019-01-08T13:09:19.645Z,97690.36
2019-01-08T13:12:06.262Z,97690.45
2019-01-08T13:14:37.003Z,97674.02
2019-01-08T13:16:49.116Z,97664.84
2019-01-08T13:19:03.699Z,97658.50
2019-01-08T13:21:16.390Z,97647.28
2019-01-08T13:23:56.118Z,97643.95
2019-01-08T13:26:03.648Z,97644.39
2019-01-08T13:28:18.743Z,97649.92
2019-01-08T13:30:35.389Z,97645.70
2019-01-08T13:32:42.720Z,97652.38
2019-01-08T13:34:58.483Z,97674.53
2019-01-08T13:37:13.580Z,97707.02
2019-01-08T13:39:31.794Z,97732.23
2019-01-08T13:42:03.822Z,97743.50
2019-01-08T13:44:25.057Z,97743.19
2019-01-08T13:46:32.924Z,97760.94
2019-01-08T13:49:17.090Z,97749.41
2019-01-08T13:51:40.793Z,97773.06
2019-01-08T13:53:49.911Z,97776.36
2019-01-08T13:55:57.765Z,97777.49
2019-01-08T14:00:50.660Z,97780.38
2019-01-08T14:05:48.675Z,97807.41
2019-01-08T14:08:49.822Z,97805.02
2019-01-08T14:10:57.178Z,97790.09
2019-01-08T14:13:42.279Z,97803.52
2019-01-08T14:15:37.591Z,97788.40
2019-01-08T14:18:03.460Z,97789.72
2019-01-08T14:20:17.906Z,97785.16
2019-01-08T14:23:14.606Z,97783.06
2019-01-08T14:25:24.906Z,97795.79
2019-01-08T14:27:39.853Z,97803.95
2019-01-08T14:29:55.668Z,97797.54
2019-01-08T14:32:26.051Z,97811.77
2019-01-08T14:34:44.651Z,97821.95
2019-01-08T14:37:50.446Z,97817.50
2019-01-08T14:40:11.587Z,97821.95
2019-01-08T14:42:40.251Z,97825.86
2019-01-08T14:45:15.647Z,97831.78
2019-01-08T14:51:32.913Z,97808.10
2019-01-08T14:53:49.608Z,97815.97
2019-01-08T14:55:58.284Z,97813.06
2019-01-08T14:58:35.494Z,97803.97
2019-01-08T15:04:12.068Z,97798.01
2019-01-08T15:06:35.820Z,97796.73
2019-01-08T15:09:20.266Z,97803.61
2019-01-08T15:11:39.296Z,97823.22
2019-01-08T15:13:58.881Z,97841.30
2019-01-08T15:17:13.626Z,97862.77
2019-01-08T15:18:25.550Z,97850.52
2019-01-08T15:20:45.126Z,97855.34
2019-01-08T15:22:58.257Z,97865.14
2019-01-08T15:25:26.144Z,97858.98
2019-01-08T15:27:30.629Z,97866.30
2019-01-08T15:29:46.168Z,97873.80
2019-01-08T15:31:58.965Z,97841.92
2019-01-08T15:34:22.014Z,97882.59
2019-01-08T15:36:30.169Z,97883.03
2019-01-08T15:39:03.007Z,97894.38
2019-01-08T15:41:14.919Z,97900.25
2019-01-08T15:43:27.480Z,97898.45
2019-01-08T15:45:35.322Z,97892.28
2019-01-08T15:50:34.328Z,97900.32
2019-01-08T15:52:41.802Z,97911.09
2019-01-08T15:54:58.267Z,97934.18
2019-01-08T15:57:08.437Z,97944.30
2019-01-08T15:59:19.017Z,97960.97
2019-01-08T16:01:52.888Z,97971.16
2019-01-08T16:04:14.492Z,97968.61
2019-01-08T16:06:22.690Z,97971.17
2019-01-08T16:08:34.914Z,97983.56
2019-01-08T16:10:50.384Z,97991.81
2019-01-08T16:13:16.125Z,97994.14
2019-01-08T16:15:25.725Z,98001.17
2019-01-08T16:17:36.427Z,98007.30
2019-01-08T16:19:50.152Z,97987.09
2019-01-08T16:22:17.348Z,97982.99
2019-01-08T16:24:35.434Z,97987.91
2019-01-08T16:26:59.137Z,97987.88
2019-01-08T16:29:11.859Z,97979.40
2019-01-08T16:31:21.323Z,98007.48
2019-01-08T16:33:35.382Z,97998.11
2019-01-08T16:35:42.865Z,97994.08
2019-01-08T16:37:50.076Z,97991.73
2019-01-08T16:40:10.145Z,97987.67
2019-01-08T16:42:22.802Z,97994.31
2019-01-08T16:44:53.632Z,97988.59
2019-01-08T16:47:03.469Z,97987.97
2019-01-08T16:49:12.356Z,97990.94
2019-01-08T16:51:19.905Z,97994.91
2019-01-08T16:53:47.826Z,97997.50
2019-01-08T16:55:55.627Z,97996.87
2019-01-08T16:58:04.217Z,97994.83
2019-01-08T17:00:40.724Z,97992.38
2019-01-08T17:02:54.267Z,97997.09
2019-01-08T17:05:19.966Z,97990.06
2019-01-08T17:07:51.403Z,97991.33
2019-01-08T17:09:50.162Z,97991.86
2019-01-08T17:12:13.578Z,97988.43
2019-01-08T17:14:27.483Z,97993.83
2019-01-08T17:16:37.260Z,97991.04
2019-01-08T17:18:45.821Z,97988.58
2019-01-08T17:20:56.871Z,97983.41
2019-01-08T17:23:10.548Z,97968.02
2019-01-08T17:25:20.431Z,97967.20
2019-01-08T17:27:35.115Z,97964.20
2019-01-08T17:30:05.012Z,97968.47
2019-01-08T17:32:14.010Z,97976.89
2019-01-08T17:34:22.231Z,97981.53
2019-01-08T17:36:29.701Z,97974.09
2019-01-08T17:38:37.858Z,97974.61
2019-01-08T17:40:46.009Z,97978.95
2019-01-08T17:42:54.361Z,97981.11
2019-01-08T17:45:02.497Z,97982.58
2019-01-08T17:47:09.702Z,97980.87
2019-01-08T17:49:17.529Z,97988.87
2019-01-08T17:51:25.734Z,97991.72
2019-01-08T17:53:33.119Z,97984.52
2019-01-08T17:55:43.005Z,97995.94
2019-01-08T17:57:52.463Z,97983.76
2019-01-08T17:59:59.937Z,98003.48
2019-01-08T18:02:14.224Z,97988.87
2019-01-08T18:04:21.659Z,97993.56
2019-01-08T18:06:29.836Z,97990.25
2019-01-08T18:08:37.318Z,98003.28
2019-01-08T18:10:44.937Z,98018.26
2019-01-08T18:12:52.338Z,98017.66
2019-01-08T18:15:00.284Z,98025.04
2019-01-08T18:17:07.892Z,98021.36
2019-01-08T18:19:15.319Z,98043.52
2019-01-08T18:21:22.763Z,98027.82
2019-01-08T18:23:30.140Z,98042.23
2019-01-08T18:25:37.399Z,98044.06
2019-01-08T18:27:44.641Z,98045.06
2019-01-08T18:29:56.420Z,98051.15
2019-01-08T18:32:03.787Z,98048.70
2019-01-08T18:34:11.228Z,98051.84
2019-01-08T18:36:18.548Z,98054.81
2019-01-08T18:38:25.820Z,98056.45
2019-01-08T18:40:33.189Z,98051.23
2019-01-08T18:42:41.704Z,98044.33
2019-01-08T18:44:48.699Z,98052.71
2019-01-08T18:46:57.388Z,98047.26
2019-01-08T18:49:05.123Z,98053.95
2019-01-08T18:51:12.359Z,98056.98
2019-01-08T18:53:19.751Z,98056.05
2019-01-08T18:55:27.765Z,98056.66
2019-01-08T18:57:35.072Z,98060.91
2019-01-08T18:59:43.129Z,98064.16
2019-01-08T19:01:58.450Z,98061.06
2019-01-08T19:04:13.289Z,98063.09
2019-01-08T19:06:28.399Z,98065.36
2019-01-08T19:09:14.276Z,98068.92
2019-01-08T19:14:03.290Z,98084.27
2019-01-08T19:16:16.033Z,98075.30
2019-01-08T19:18:31.760Z,98074.70
2019-01-08T19:20:49.010Z,98088.08
2019-01-08T19:23:00.744Z,98092.12
2019-01-08T19:25:14.481Z,98091.05
2019-01-08T19:27:31.055Z,98108.91
2019-01-08T19:29:54.227Z,98117.55
2019-01-08T19:32:22.447Z,98101.59
2019-01-08T19:34:38.606Z,98099.41
2019-01-08T19:36:54.293Z,98102.54
2019-01-08T19:39:11.055Z,98103.11
2019-01-08T19:41:23.360Z,98110.02
2019-01-08T19:43:34.850Z,98118.81
2019-01-08T19:45:42.559Z,98112.06
2019-01-08T19:48:33.393Z,98121.02
2019-01-08T19:50:48.833Z,98080.05
2019-01-08T19:53:02.893Z,98135.51
2019-01-08T19:55:21.400Z,98135.34
2019-01-08T19:57:31.936Z,98132.50
2019-01-08T19:59:54.771Z,98133.61
2019-01-08T20:02:05.977Z,98132.15
2019-01-08T20:04:18.327Z,98137.36
2019-01-08T20:06:29.653Z,98137.70
2019-01-08T20:09:11.715Z,98130.03
2019-01-08T20:11:03.014Z,98140.19
2019-01-08T20:13:24.946Z,98142.05
2019-01-08T20:15:32.113Z,98150.77
2019-01-08T20:17:45.011Z,98142.81
2019-01-08T20:20:01.540Z,98169.26
2019-01-08T20:22:10.667Z,98156.76
2019-01-08T20:24:24.279Z,98164.59
2019-01-08T20:26:38.287Z,98176.80
2019-01-08T20:28:50.236Z,98163.94
2019-01-08T20:31:04.329Z,98172.92
2019-01-08T20:33:15.343Z,98158.53
2019-01-08T20:35:28.682Z,98152.61
2019-01-08T20:37:36.703Z,98177.76
2019-01-08T20:39:59.247Z,98190.58
2019-01-08T20:42:28.807Z,98165.67
2019-01-08T20:44:45.386Z,98191.20
2019-01-08T20:46:53.564Z,98178.51
2019-01-08T20:49:04.111Z,98207.67
2019-01-08T20:51:15.337Z,98174.95
2019-01-08T20:53:28.470Z,98205.14
2019-01-08T20:55:40.526Z,98196.67
2019-01-08T20:57:53.734Z,98212.69
2019-01-08T21:00:00.906Z,98202.62
2019-01-08T21:02:11.052Z,98214.75
2019-01-08T21:04:22.956Z,98206.55
2019-01-08T21:06:33.935Z,98193.95
2019-01-08T21:11:13.808Z,98205.19
2019-01-08T21:13:28.392Z,98207.55
2019-01-08T21:15:34.965Z,98224.56
2019-01-08T21:17:46.869Z,98241.61
2019-01-08T21:20:00.877Z,98233.05
2019-01-08T21:22:12.504Z,98228.58
2019-01-08T21:24:28.594Z,98255.15
2019-01-08T21:26:55.094Z,98247.97
2019-01-08T21:29:04.557Z,98249.93
2019-01-08T21:31:18.953Z,98259.31
2019-01-08T21:33:26.228Z,98248.42
2019-01-08T21:35:34.009Z,98270.63
2019-01-08T21:37:41.371Z,98275.97
2019-01-08T21:39:48.681Z,98274.61
2019-01-08T21:41:56.266Z,98264.63
2019-01-08T21:44:03.647Z,98273.95
2019-01-08T21:46:12.532Z,98290.41
2019-01-08T21:48:19.929Z,98290.85
2019-01-08T21:50:28.244Z,98286.64
2019-01-08T21:52:36.140Z,98296.31
2019-01-08T21:54:45.146Z,98292.88
2019-01-08T21:56:54.120Z,98294.73
2019-01-08T21:59:01.604Z,98289.88
2019-01-08T22:01:09.024Z,98288.23
2019-01-08T22:03:22.339Z,98298.78
2019-01-08T22:05:32.808Z,98303.03
2019-01-08T22:07:54.169Z,98310.62
2019-01-08T22:10:03.948Z,98311.41
2019-01-08T22:12:13.189Z,98312.19
2019-01-08T22:14:20.498Z,98305.52
2019-01-08T22:16:27.926Z,98294.02
2019-01-08T22:18:35.408Z,98308.22
2019-01-08T22:20:45.990Z,98302.96
2019-01-08T22:23:00.007Z,98300.53
2019-01-08T22:25:12.335Z,98303.78
2019-01-08T22:27:26.106Z,98301.75
2019-01-08T22:29:39.362Z,98307.14
2019-01-08T22:31:52.724Z,98310.56
2019-01-08T22:34:05.900Z,98310.67
2019-01-08T22:36:24.668Z,98308.25
2019-01-08T22:38:35.629Z,98306.35
2019-01-08T22:40:50.029Z,98309.35
2019-01-08T22:43:02.861Z,98324.17
2019-01-08T22:45:21.022Z,98319.23
2019-01-08T22:47:33.998Z,98311.63
2019-01-08T22:49:51.301Z,98305.77
2019-01-08T22:51:59.979Z,98314.80
2019-01-08T22:54:12.517Z,98303.41
2019-01-08T22:56:42.907Z,98312.84
2019-01-08T22:58:58.893Z,98312.94
2019-01-08T23:01:26.739Z,98331.55
2019-01-08T23:03:43.492Z,98319.92
2019-01-08T23:05:51.621Z,98321.33
2019-01-08T23:08:00.935Z,98320.55
2019-01-08T23:10:15.560Z,98318.61
2019-01-08T23:12:28.243Z,98329.75
2019-01-08T23:14:38.971Z,98333.20
2019-01-08T23:16:46.138Z,98341.18
2019-01-08T23:19:02.420Z,98342.42
2019-01-08T23:21:13.209Z,98337.31
2019-01-08T23:23:23.888Z,98351.25
2019-01-08T23:25:34.435Z,98346.45
2019-01-08T23:27:50.592Z,98357.58
2019-01-08T23:30:07.502Z,98356.80
2019-01-08T23:32:19.035Z,98361.66
2019-01-08T23:34:30.576Z,98371.99
2019-01-08T23:36:47.694Z,98371.64
2019-01-08T23:39:25.943Z,98367.95
2019-01-08T23:41:44.363Z,98374.62
2019-01-08T23:43:57.932Z,98380.97
2019-01-08T23:46:07.795Z,98369.98
2019-01-08T23:48:18.099Z,98375.41
2019-01-08T23:50:30.410Z,98380.14
2019-01-08T23:53:16.139Z,98387.75
2019-01-08T23:55:30.967Z,98388.92
2019-01-08T23:57:41.700Z,98391.20
